Time;durP1;ratioP1;P1;durP2;ratioP2;P2;SDS_P1;SDS_P2;PMS_P1;PMS_P2;Temp;Humidity;BMP_temperature;BMP_pressure;BME280_temperature;BME280_humidity;BME280_pressure;Samples;Min_cycle;Max_cycle;Signal;HPM_P1;HPM_P2
2024/04/03 00:00:08;;;;;;;;;;;;;;;;;;414414;23;1440;-83
2024/04/03 00:00:18;;;;;;;;;;;;;;;;;;414421;23;970;-83
2024/04/03 00:00:28;;;;;;;;;;;;;;;;;;416547;23;1061;-83
2024/04/03 00:00:40;;;;;;;;;;;;;;;;;;416371;23;1288;-83
2024/04/03 00:00:50;;;;;;;;;;;;;;;;;;416341;23;1013;-82
2024/04/03 00:01:00;;;;;;;;;;;;;;;;;;418241;23;937;-83
2024/04/03 00:01:11;;;;;;;;;;;;;;;;;;414431;23;1185;-83
2024/04/03 00:01:21;;;;;;;;;;;;;;;;;;416376;23;1001;-83
2024/04/03 00:01:32;;;;;;;;;;;;;;;;;;416500;23;955;-83
2024/04/03 00:01:42;;;;;;;;;;;;;;;;;;416423;23;1049;-83
2024/04/03 00:01:53;;;;;;;;;;;;;;;;;;416436;23;985;-83
2024/04/03 00:02:03;;;;;;;;;;;;;;;;;;416369;23;1288;-83
2024/04/03 00:02:13;;;;;;;;;;;;;;;;;;418421;23;1319;-83
2024/04/03 00:02:23;;;;;;;;;;;;;;;;;;416243;23;1335;-83
2024/04/03 00:02:34;;;;;;;;;;;;;;;;;;416432;23;966;-83
2024/04/03 00:02:44;;;;;;;;;;;;;;;;;;416408;23;914;-83
2024/04/03 00:02:54;;;;;;;;;;;;;;;;;;414447;23;1292;-82
2024/04/03 00:03:05;;;;;;;;;;;;;;;;;;414421;23;954;-83
2024/04/03 00:03:15;;;;;;;;;;;;;;;;;;416511;23;844;-82
2024/04/03 00:03:25;;;;;;;;;;;;;;;;;;416473;23;1038;-82
2024/04/03 00:03:35;;;;;;;;;;;;;;;;;;416402;23;818;-83
2024/04/03 00:03:45;;;;;;;;;;;;;;;;;;414391;23;1302;-83
2024/04/03 00:03:56;;;;;;;;;;;;;;;;;;414540;23;998;-83
2024/04/03 00:04:06;;;;;;;;;;;;;;;;;;414396;23;1005;-82
2024/04/03 00:04:17;;;;;;;;;;;;;;;;;;416421;23;1302;-83
2024/04/03 00:04:27;;;;;;;;;;;;;;;;;;416391;23;1080;-83
2024/04/03 00:04:38;;;;;;;;;;;;;;;;;;416500;23;926;-83
2024/04/03 00:04:48;;;;;;;;;;;;;;;;;;416346;23;990;-83
2024/04/03 00:04:58;;;;;;;;;;;;;;;;;;416511;23;1001;-83
2024/04/03 00:05:08;;;;;;;;;;;;;;;;;;416176;23;1189;-83
2024/04/03 00:05:19;;;;;;;;;;;;;;;;;;418433;23;910;-83
2024/04/03 00:05:29;;;;;;;;;;;;;;;;;;416394;23;1503;-83
2024/04/03 00:05:39;;;;;;;;;;;;;;;;;;414270;23;1421;-83
2024/04/03 00:05:50;;;;;;;;;;;;;;;;;;414577;23;958;-83
2024/04/03 00:06:00;;;;;;;;;;;;;;;;;;414494;23;1021;-83
2024/04/03 00:06:10;;;;;;;;;;;;;;;;;;414551;23;933;-83
2024/04/03 00:06:20;;;;;;;;;;;;;;;;;;416362;23;1215;-83
2024/04/03 00:06:31;;;;;;;;;;;;;;;;;;420410;23;1289;-82
2024/04/03 00:06:41;;;;;;;;;;;;;;;;;;420471;23;764;-82
2024/04/03 00:06:51;;;;;;;;;;;;;;;;;;420510;23;981;-83
2024/04/03 00:07:01;;;;;;;;;;;;;;;;;;420278;23;1193;-83
2024/04/03 00:07:11;;;;;;;;;;;;;;;;;;418525;23;776;-83
2024/04/03 00:07:22;;;;;;;;;;;;;;;;;;416326;23;1178;-83
2024/04/03 00:07:32;;;;;;;;;;;;;;;;;;418483;23;791;-83
2024/04/03 00:07:42;;;;;;;;;;;;;;;;;;418222;23;1189;-83
2024/04/03 00:07:52;;;;;;;;;;;;;;;;;;418322;23;1385;-83
2024/04/03 00:08:03;;;;;;;;;;;;;;;;;;418455;23;930;-83
2024/04/03 00:08:13;;;;;;;;;;;;;;;;;;418342;23;1299;-82
2024/04/03 00:08:24;;;;;;;;;;;;;;;;;;416511;23;843;-83
2024/04/03 00:08:34;;;;;;;;;;;;;;;;;;416470;23;1006;-83
2024/04/03 00:08:44;;;;;;;;;;;;;;;;;;416514;23;819;-83
2024/04/03 00:08:54;;;;;;;;;;;;;;;;;;416449;23;962;-83
2024/04/03 00:09:04;;;;;;;;;;;;;;;;;;420258;23;1354;-82
2024/04/03 00:09:15;;;;;;;;;;;;;;;;;;420387;23;1021;-83
2024/04/03 00:09:25;;;;;;;;;;;;;;;;;;420481;23;906;-83
2024/04/03 00:09:35;;;;;;;;;;;;;;;;;;414477;23;1337;-83
2024/04/03 00:09:46;;;;;;;;;;;;;;;;;;414115;23;773;-83
2024/04/03 00:09:57;;;;;;;;;;;;;;;;;;414434;23;943;-83
2024/04/03 00:10:07;;;;;;;;;;;;;;;;;;414156;23;1166;-83
2024/04/03 00:10:18;;;;;;;;;;;;;;;;;;416451;23;1005;-83
2024/04/03 00:10:28;;;;;;;;;;;;;;;;;;416383;23;946;-83
2024/04/03 00:10:38;;;;;;;;;;;;;;;;;;416438;23;847;-83
2024/04/03 00:10:49;;;;;;;;;;;;;;;;;;416210;23;1203;-82
2024/04/03 00:10:59;;;;;;;;;;;;;;;;;;412486;24;1304;-82
2024/04/03 00:11:09;;;;;;;;;;;;;;;;;;416340;23;1303;-83
2024/04/03 00:11:19;;;;;;;;;;;;;;;;;;416372;23;973;-82
2024/04/03 00:11:29;;;;;;;;;;;;;;;;;;414300;23;1162;-83
2024/04/03 00:11:40;;;;;;;;;;;;;;;;;;414587;23;953;-83
2024/04/03 00:11:50;;;;;;;;;;;;;;;;;;418103;23;1889;-83
2024/04/03 00:12:00;;;;;;;;;;;;;;;;;;416309;23;1250;-83
2024/04/03 00:12:10;;;;;;;;;;;;;;;;;;413922;23;1291;-82
2024/04/03 00:12:21;;;;;;;;;;;;;;;;;;416420;23;1212;-82
2024/04/03 00:12:31;;;;;;;;;;;;;;;;;;416334;23;1178;-83
2024/04/03 00:12:41;;;;;;;;;;;;;;;;;;416447;23;946;-83
2024/04/03 00:12:51;;;;;;;;;;;;;;;;;;416323;23;930;-83
2024/04/03 00:13:02;;;;;;;;;;;;;;;;;;416339;23;1305;-83
2024/04/03 00:13:12;;;;;;;;;;;;;;;;;;416409;23;954;-83
2024/04/03 00:13:22;;;;;;;;;;;;;;;;;;414403;23;1288;-83
2024/04/03 00:13:32;;;;;;;;;;;;;;;;;;414533;23;1224;-83
2024/04/03 00:13:42;;;;;;;;;;;;;;;;;;416377;23;1159;-82
2024/04/03 00:13:54;;;;;;;;;;;;;;;;;;416237;23;1198;-82
2024/04/03 00:14:04;;;;;;;;;;;;;;;;;;416433;23;990;-83
2024/04/03 00:14:14;;;;;;;;;;;;;;;;;;412400;24;1371;-83
2024/04/03 00:14:24;;;;;;;;;;;;;;;;;;414379;23;1333;-83
2024/04/03 00:14:35;;;;;;;;;;;;;;;;;;416384;23;1196;-83
2024/04/03 00:14:45;;;;;;;;;;;;;;;;;;418325;23;973;-82
2024/04/03 00:14:55;;;;;;;;;;;;;;;;;;416477;23;1304;-83
2024/04/03 00:15:06;;;;;;;;;;;;;;;;;;414556;23;812;-82
2024/04/03 00:15:16;;;;;;;;;;;;;;;;;;414446;23;1276;-83
2024/04/03 00:15:26;;;;;;;;;;;;;;;;;;412378;24;808;-83
2024/04/03 00:15:38;;;;;;;;;;;;;;;;;;412524;24;1314;-83
2024/04/03 00:15:48;;;;;;;;;;;;;;;;;;414346;23;1279;-83
2024/04/03 00:15:59;;;;;;;;;;;;;;;;;;416444;23;1303;-83
2024/04/03 00:16:09;;;;;;;;;;;;;;;;;;416449;23;887;-82
2024/04/03 00:16:19;;;;;;;;;;;;;;;;;;416434;23;1251;-83
2024/04/03 00:16:29;;;;;;;;;;;;;;;;;;416454;23;974;-82
2024/04/03 00:16:40;;;;;;;;;;;;;;;;;;416349;23;1529;-83
2024/04/03 00:16:50;;;;;;;;;;;;;;;;;;416295;23;1260;-83
2024/04/03 00:17:01;;;;;;;;;;;;;;;;;;414327;23;1309;-83
2024/04/03 00:17:11;;;;;;;;;;;;;;;;;;416432;23;800;-83
2024/04/03 00:17:21;;;;;;;;;;;;;;;;;;416433;23;942;-83
2024/04/03 00:17:32;;;;;;;;;;;;;;;;;;416406;23;970;-83
2024/04/03 00:17:42;;;;;;;;;;;;;;;;;;416525;23;1017;-83
2024/04/03 00:17:53;;;;;;;;;;;;;;;;;;416334;23;1289;-83
2024/04/03 00:18:04;;;;;;;;;;;;;;;;;;416391;23;958;-83
2024/04/03 00:18:14;;;;;;;;;;;;;;;;;;414408;23;753;-83
2024/04/03 00:18:24;;;;;;;;;;;;;;;;;;414632;23;815;-83
2024/04/03 00:18:35;;;;;;;;;;;;;;;;;;414450;23;973;-83
2024/04/03 00:18:45;;;;;;;;;;;;;;;;;;414404;23;1300;-83
2024/04/03 00:18:55;;;;;;;;;;;;;;;;;;414504;23;919;-82
2024/04/03 00:19:05;;;;;;;;;;;;;;;;;;414602;23;1206;-83
2024/04/03 00:19:15;;;;;;;;;;;;;;;;;;417957;23;1318;-82
2024/04/03 00:19:26;;;;;;;;;;;;;;;;;;418112;23;1347;-82
2024/04/03 00:19:36;;;;;;;;;;;;;;;;;;418512;23;949;-83
2024/04/03 00:19:46;;;;;;;;;;;;;;;;;;416535;23;1045;-83
2024/04/03 00:19:56;;;;;;;;;;;;;;;;;;416284;23;934;-83
2024/04/03 00:20:07;;;;;;;;;;;;;;;;;;416522;23;1029;-82
2024/04/03 00:20:17;;;;;;;;;;;;;;;;;;418186;23;1156;-83
2024/04/03 00:20:27;;;;;;;;;;;;;;;;;;418473;23;1001;-83
2024/04/03 00:20:37;;;;;;;;;;;;;;;;;;416258;23;1282;-83
2024/04/03 00:20:47;;;;;;;;;;;;;;;;;;416415;23;1235;-83
2024/04/03 00:20:58;;;;;;;;;;;;;;;;;;416417;23;1272;-83
2024/04/03 00:21:09;;;;;;;;;;;;;;;;;;412406;24;1191;-83
2024/04/03 00:21:19;;;;;;;;;;;;;;;;;;414399;23;1193;-83
2024/04/03 00:21:29;;;;;;;;;;;;;;;;;;416444;23;1172;-83
2024/04/03 00:21:39;;;;;;;;;;;;;;;;;;416339;23;1237;-83
2024/04/03 00:21:53;;;;;;;;;;;;;;;;;;416541;23;861;-83
2024/04/03 00:22:03;;;;;;;;;;;;;;;;;;416362;23;1001;-83
2024/04/03 00:22:13;;;;;;;;;;;;;;;;;;418400;23;1182;-83
2024/04/03 00:22:23;;;;;;;;;;;;;;;;;;416322;23;1215;-82
2024/04/03 00:22:34;;;;;;;;;;;;;;;;;;418374;23;977;-83
2024/04/03 00:22:44;;;;;;;;;;;;;;;;;;416285;23;1282;-83
2024/04/03 00:22:54;;;;;;;;;;;;;;;;;;416554;23;769;-83
2024/04/03 00:23:04;;;;;;;;;;;;;;;;;;420299;23;1184;-83
2024/04/03 00:23:15;;;;;;;;;;;;;;;;;;416390;23;1283;-83
2024/04/03 00:23:25;;;;;;;;;;;;;;;;;;416331;23;769;-83
2024/04/03 00:23:35;;;;;;;;;;;;;;;;;;418315;23;994;-83
2024/04/03 00:23:46;;;;;;;;;;;;;;;;;;414425;23;1178;-83
2024/04/03 00:23:56;;;;;;;;;;;;;;;;;;416366;23;1165;-83
2024/04/03 00:24:06;;;;;;;;;;;;;;;;;;414472;23;1214;-82
2024/04/03 00:24:17;;;;;;;;;;;;;;;;;;418295;23;1228;-83
2024/04/03 00:24:27;;;;;;;;;;;;;;;;;;418400;23;942;-83
2024/04/03 00:24:37;;;;;;;;;;;;;;;;;;418492;23;1001;-83
2024/04/03 00:24:47;;;;;;;;;;;;;;;;;;418463;23;1001;-83
2024/04/03 00:24:58;;;;;;;;;;;;;;;;;;418361;23;950;-83
2024/04/03 00:25:08;;;;;;;;;;;;;;;;;;416295;23;1187;-83
2024/04/03 00:25:18;;;;;;;;;;;;;;;;;;416464;23;891;-83
2024/04/03 00:25:28;;;;;;;;;;;;;;;;;;414384;23;1344;-83
2024/04/03 00:25:39;;;;;;;;;;;;;;;;;;414592;23;1017;-83
2024/04/03 00:25:59;;;;;;;;;;;;;;;;;;412427;24;1010;-82
2024/04/03 00:26:09;;;;;;;;;;;;;;;;;;414299;23;1293;-83
2024/04/03 00:26:19;;;;;;;;;;;;;;;;;;414306;23;982;-82
2024/04/03 00:26:29;;;;;;;;;;;;;;;;;;416350;23;1182;-83
2024/04/03 00:26:39;;;;;;;;;;;;;;;;;;416388;23;1248;-83
2024/04/03 00:26:50;;;;;;;;;;;;;;;;;;412473;24;1018;-83
2024/04/03 00:27:00;;;;;;;;;;;;;;;;;;414367;23;1381;-83
2024/04/03 00:27:10;;;;;;;;;;;;;;;;;;414462;23;1209;-83
2024/04/03 00:27:20;;;;;;;;;;;;;;;;;;414367;23;974;-82
2024/04/03 00:27:31;;;;;;;;;;;;;;;;;;414481;23;1013;-83
2024/04/03 00:27:41;;;;;;;;;;;;;;;;;;416425;23;764;-83
2024/04/03 00:27:52;;;;;;;;;;;;;;;;;;416384;23;1213;-83
2024/04/03 00:28:02;;;;;;;;;;;;;;;;;;418278;23;1017;-83
2024/04/03 00:28:12;;;;;;;;;;;;;;;;;;416322;23;1266;-83
2024/04/03 00:28:23;;;;;;;;;;;;;;;;;;416021;23;1437;-82
2024/04/03 00:28:33;;;;;;;;;;;;;;;;;;416406;23;998;-82
2024/04/03 00:28:43;;;;;;;;;;;;;;;;;;414265;23;1311;-82
2024/04/03 00:28:54;;;;;;;;;;;;;;;;;;416416;23;1033;-83
2024/04/03 00:29:04;;;;;;;;;;;;;;;;;;416320;23;1050;-82
2024/04/03 00:29:14;;;;;;;;;;;;;;;;;;416517;23;958;-83
2024/04/03 00:29:24;;;;;;;;;;;;;;;;;;414115;23;1552;-83
2024/04/03 00:29:34;;;;;;;;;;;;;;;;;;416261;23;1275;-83
2024/04/03 00:29:45;;;;;;;;;;;;;;;;;;416367;23;927;-83
2024/04/03 00:29:56;;;;;;;;;;;;;;;;;;416538;23;982;-83
2024/04/03 00:30:06;;;;;;;;;;;;;;;;;;414265;23;1170;-83
2024/04/03 00:30:16;;;;;;;;;;;;;;;;;;414474;23;1009;-83
2024/04/03 00:30:27;;;;;;;;;;;;;;;;;;414407;23;815;-83
2024/04/03 00:30:37;;;;;;;;;;;;;;;;;;414420;23;1289;-83
2024/04/03 00:30:47;;;;;;;;;;;;;;;;;;414424;23;1018;-83
2024/04/03 00:31:01;;;;;;;;;;;;;;;;;;414443;23;955;-83
2024/04/03 00:31:11;;;;;;;;;;;;;;;;;;414295;23;851;-83
2024/04/03 00:31:22;;;;;;;;;;;;;;;;;;416314;23;1378;-83
2024/04/03 00:31:32;;;;;;;;;;;;;;;;;;416341;23;994;-83
2024/04/03 00:31:45;;;;;;;;;;;;;;;;;;416256;23;1364;-83
2024/04/03 00:31:55;;;;;;;;;;;;;;;;;;418309;23;1169;-83
2024/04/03 00:32:05;;;;;;;;;;;;;;;;;;418419;23;966;-83
2024/04/03 00:32:16;;;;;;;;;;;;;;;;;;416432;23;1283;-83
2024/04/03 00:32:26;;;;;;;;;;;;;;;;;;412299;24;1277;-83
2024/04/03 00:32:36;;;;;;;;;;;;;;;;;;414299;23;1279;-83
2024/04/03 00:32:46;;;;;;;;;;;;;;;;;;416474;23;785;-83
2024/04/03 00:32:57;;;;;;;;;;;;;;;;;;416301;23;1266;-82
2024/04/03 00:33:07;;;;;;;;;;;;;;;;;;416490;23;764;-83
2024/04/03 00:33:17;;;;;;;;;;;;;;;;;;413907;23;1280;-82
2024/04/03 00:33:28;;;;;;;;;;;;;;;;;;416383;23;1257;-82
2024/04/03 00:33:38;;;;;;;;;;;;;;;;;;414382;23;1239;-83
2024/04/03 00:33:48;;;;;;;;;;;;;;;;;;414379;23;939;-83
2024/04/03 00:33:58;;;;;;;;;;;;;;;;;;412245;24;1342;-83
2024/04/03 00:34:08;;;;;;;;;;;;;;;;;;412577;24;1006;-83
2024/04/03 00:34:19;;;;;;;;;;;;;;;;;;412477;24;911;-83
2024/04/03 00:34:29;;;;;;;;;;;;;;;;;;412394;24;1237;-83
2024/04/03 00:34:39;;;;;;;;;;;;;;;;;;412456;24;998;-82
2024/04/03 00:34:53;;;;;;;;;;;;;;;;;;414430;23;982;-82
2024/04/03 00:35:03;;;;;;;;;;;;;;;;;;414292;23;1365;-83
2024/04/03 00:35:13;;;;;;;;;;;;;;;;;;420305;23;1224;-82
2024/04/03 00:35:23;;;;;;;;;;;;;;;;;;420390;23;981;-82
2024/04/03 00:35:34;;;;;;;;;;;;;;;;;;418551;23;998;-82
2024/04/03 00:35:53;;;;;;;;;;;;;;;;;;418325;23;1037;-83
2024/04/03 00:36:03;;;;;;;;;;;;;;;;;;418243;23;950;-82
2024/04/03 00:36:14;;;;;;;;;;;;;;;;;;418494;23;859;-83
2024/04/03 00:36:24;;;;;;;;;;;;;;;;;;418153;23;986;-83
2024/04/03 00:36:34;;;;;;;;;;;;;;;;;;416366;23;883;-83
2024/04/03 00:36:44;;;;;;;;;;;;;;;;;;416178;23;1095;-83
2024/04/03 00:36:54;;;;;;;;;;;;;;;;;;416320;23;1294;-83
2024/04/03 00:37:05;;;;;;;;;;;;;;;;;;416058;23;1166;-83
2024/04/03 00:37:15;;;;;;;;;;;;;;;;;;416407;23;982;-83
2024/04/03 00:37:26;;;;;;;;;;;;;;;;;;415873;23;1105;-83
2024/04/03 00:37:36;;;;;;;;;;;;;;;;;;416477;23;808;-83
2024/04/03 00:37:46;;;;;;;;;;;;;;;;;;416299;23;986;-82
2024/04/03 00:37:57;;;;;;;;;;;;;;;;;;414461;23;1052;-82
2024/04/03 00:38:08;;;;;;;;;;;;;;;;;;414232;23;1037;-83
2024/04/03 00:38:18;;;;;;;;;;;;;;;;;;416356;23;1268;-83
2024/04/03 00:38:28;;;;;;;;;;;;;;;;;;414371;23;1041;-82
2024/04/03 00:38:38;;;;;;;;;;;;;;;;;;414383;23;1013;-83
2024/04/03 00:38:48;;;;;;;;;;;;;;;;;;412470;24;1302;-83
2024/04/03 00:38:59;;;;;;;;;;;;;;;;;;412280;24;1162;-82
2024/04/03 00:39:09;;;;;;;;;;;;;;;;;;412228;24;804;-83
2024/04/03 00:39:20;;;;;;;;;;;;;;;;;;412486;24;1033;-83
2024/04/03 00:39:30;;;;;;;;;;;;;;;;;;414268;23;950;-83
2024/04/03 00:39:41;;;;;;;;;;;;;;;;;;416500;23;879;-82
2024/04/03 00:39:54;;;;;;;;;;;;;;;;;;416100;23;1258;-83
2024/04/03 00:40:04;;;;;;;;;;;;;;;;;;416304;23;1296;-83
2024/04/03 00:40:14;;;;;;;;;;;;;;;;;;414281;23;1260;-83
2024/04/03 00:40:25;;;;;;;;;;;;;;;;;;414161;23;839;-83
2024/04/03 00:40:35;;;;;;;;;;;;;;;;;;414289;23;1380;-82
2024/04/03 00:40:52;;;;;;;;;;;;;;;;;;414532;23;1010;-83
2024/04/03 00:41:02;;;;;;;;;;;;;;;;;;414507;23;962;-82
2024/04/03 00:41:13;;;;;;;;;;;;;;;;;;416128;23;1283;-83
2024/04/03 00:41:24;;;;;;;;;;;;;;;;;;416324;23;978;-82
2024/04/03 00:41:34;;;;;;;;;;;;;;;;;;416186;23;1308;-82
2024/04/03 00:41:45;;;;;;;;;;;;;;;;;;414346;23;1290;-83
2024/04/03 00:41:55;;;;;;;;;;;;;;;;;;416321;23;938;-82
2024/04/03 00:42:05;;;;;;;;;;;;;;;;;;418459;23;907;-83
2024/04/03 00:42:15;;;;;;;;;;;;;;;;;;416403;23;1033;-83
2024/04/03 00:42:26;;;;;;;;;;;;;;;;;;416338;23;1150;-83
2024/04/03 00:42:36;;;;;;;;;;;;;;;;;;416383;23;962;-83
2024/04/03 00:42:46;;;;;;;;;;;;;;;;;;418334;23;1156;-83
2024/04/03 00:42:56;;;;;;;;;;;;;;;;;;418392;23;1042;-83
2024/04/03 00:43:13;;;;;;;;;;;;;;;;;;414286;23;1050;-82
2024/04/03 00:43:24;;;;;;;;;;;;;;;;;;414588;23;982;-83
2024/04/03 00:43:34;;;;;;;;;;;;;;;;;;414660;23;942;-83
2024/04/03 00:43:45;;;;;;;;;;;;;;;;;;414369;23;971;-83
2024/04/03 00:43:55;;;;;;;;;;;;;;;;;;416476;23;935;-83
2024/04/03 00:44:05;;;;;;;;;;;;;;;;;;416510;23;1222;-83
2024/04/03 00:44:15;;;;;;;;;;;;;;;;;;416489;23;1049;-83
2024/04/03 00:44:26;;;;;;;;;;;;;;;;;;420251;23;1293;-83
2024/04/03 00:44:36;;;;;;;;;;;;;;;;;;418445;23;1169;-83
2024/04/03 00:44:47;;;;;;;;;;;;;;;;;;420336;23;1224;-83
2024/04/03 00:44:58;;;;;;;;;;;;;;;;;;420424;23;1329;-83
2024/04/03 00:45:08;;;;;;;;;;;;;;;;;;420326;23;977;-83
2024/04/03 00:45:18;;;;;;;;;;;;;;;;;;416352;23;1331;-82
2024/04/03 00:45:29;;;;;;;;;;;;;;;;;;416206;23;1467;-82
2024/04/03 00:45:39;;;;;;;;;;;;;;;;;;416439;23;1269;-82
2024/04/03 00:45:50;;;;;;;;;;;;;;;;;;418358;23;1041;-83
2024/04/03 00:46:03;;;;;;;;;;;;;;;;;;420603;23;1002;-83
2024/04/03 00:46:13;;;;;;;;;;;;;;;;;;416206;23;1354;-83
2024/04/03 00:46:23;;;;;;;;;;;;;;;;;;414563;23;1229;-83
2024/04/03 00:46:34;;;;;;;;;;;;;;;;;;416305;23;1001;-83
2024/04/03 00:46:45;;;;;;;;;;;;;;;;;;414547;23;970;-82
2024/04/03 00:46:55;;;;;;;;;;;;;;;;;;416249;23;1206;-83
2024/04/03 00:47:05;;;;;;;;;;;;;;;;;;414520;23;1410;-83
2024/04/03 00:47:16;;;;;;;;;;;;;;;;;;414378;23;1163;-82
2024/04/03 00:47:26;;;;;;;;;;;;;;;;;;414400;23;963;-83
2024/04/03 00:47:37;;;;;;;;;;;;;;;;;;414432;23;1223;-83
2024/04/03 00:47:47;;;;;;;;;;;;;;;;;;414635;23;1078;-83
2024/04/03 00:47:58;;;;;;;;;;;;;;;;;;414440;23;959;-83
2024/04/03 00:48:08;;;;;;;;;;;;;;;;;;416566;23;1198;-82
2024/04/03 00:48:18;;;;;;;;;;;;;;;;;;416428;23;1124;-83
2024/04/03 00:48:30;;;;;;;;;;;;;;;;;;418472;23;1264;-83
2024/04/03 00:48:40;;;;;;;;;;;;;;;;;;418528;23;994;-83
2024/04/03 00:48:50;;;;;;;;;;;;;;;;;;418461;23;1421;-83
2024/04/03 00:49:01;;;;;;;;;;;;;;;;;;416488;23;1323;-82
2024/04/03 00:49:11;;;;;;;;;;;;;;;;;;416290;23;1005;-83
2024/04/03 00:49:21;;;;;;;;;;;;;;;;;;416408;23;1180;-83
2024/04/03 00:49:32;;;;;;;;;;;;;;;;;;416610;23;784;-83
2024/04/03 00:49:43;;;;;;;;;;;;;;;;;;418254;23;974;-83
2024/04/03 00:49:55;;;;;;;;;;;;;;;;;;418575;23;978;-83
2024/04/03 00:50:05;;;;;;;;;;;;;;;;;;414424;23;1260;-83
2024/04/03 00:50:15;;;;;;;;;;;;;;;;;;414666;23;959;-83
2024/04/03 00:50:25;;;;;;;;;;;;;;;;;;414546;23;990;-83
2024/04/03 00:50:36;;;;;;;;;;;;;;;;;;416516;23;1244;-83
2024/04/03 00:50:47;;;;;;;;;;;;;;;;;;416559;23;1154;-83
2024/04/03 00:51:00;;;;;;;;;;;;;;;;;;414511;23;1371;-82
2024/04/03 00:51:10;;;;;;;;;;;;;;;;;;414620;23;769;-83
2024/04/03 00:51:20;;;;;;;;;;;;;;;;;;416444;23;1210;-83
2024/04/03 00:51:31;;;;;;;;;;;;;;;;;;416451;23;1273;-83
2024/04/03 00:51:41;;;;;;;;;;;;;;;;;;416545;23;943;-83
2024/04/03 00:51:51;;;;;;;;;;;;;;;;;;414394;23;1894;-83
2024/04/03 00:52:02;;;;;;;;;;;;;;;;;;416417;23;1433;-83
2024/04/03 00:52:12;;;;;;;;;;;;;;;;;;416378;23;1266;-83
2024/04/03 00:52:23;;;;;;;;;;;;;;;;;;416482;23;1017;-83
2024/04/03 00:52:33;;;;;;;;;;;;;;;;;;414572;23;946;-83
2024/04/03 00:52:43;;;;;;;;;;;;;;;;;;412576;24;1276;-83
2024/04/03 00:52:53;;;;;;;;;;;;;;;;;;412658;24;812;-83
2024/04/03 00:53:04;;;;;;;;;;;;;;;;;;414533;23;1440;-83
2024/04/03 00:53:15;;;;;;;;;;;;;;;;;;416454;23;990;-83
2024/04/03 00:53:26;;;;;;;;;;;;;;;;;;418501;23;969;-83
2024/04/03 00:53:37;;;;;;;;;;;;;;;;;;420427;23;984;-83
2024/04/03 00:53:47;;;;;;;;;;;;;;;;;;416374;23;1273;-83
2024/04/03 00:53:58;;;;;;;;;;;;;;;;;;414558;23;1323;-83
2024/04/03 00:54:08;;;;;;;;;;;;;;;;;;418497;23;1016;-83
2024/04/03 00:54:21;;;;;;;;;;;;;;;;;;418528;23;938;-83
2024/04/03 00:54:31;;;;;;;;;;;;;;;;;;414200;23;982;-82
2024/04/03 00:54:42;;;;;;;;;;;;;;;;;;414637;23;1039;-83
2024/04/03 00:54:52;;;;;;;;;;;;;;;;;;414393;23;843;-83
2024/04/03 00:55:03;;;;;;;;;;;;;;;;;;416376;23;1197;-83
2024/04/03 00:55:13;;;;;;;;;;;;;;;;;;418426;23;938;-83
2024/04/03 00:55:23;;;;;;;;;;;;;;;;;;418554;23;1001;-83
2024/04/03 00:55:34;;;;;;;;;;;;;;;;;;414407;23;1179;-83
2024/04/03 00:55:44;;;;;;;;;;;;;;;;;;416536;23;1002;-83
2024/04/03 00:55:55;;;;;;;;;;;;;;;;;;416413;23;978;-83
2024/04/03 00:56:08;;;;;;;;;;;;;;;;;;416609;23;808;-82
2024/04/03 00:56:18;;;;;;;;;;;;;;;;;;416578;23;910;-83
2024/04/03 00:56:29;;;;;;;;;;;;;;;;;;416602;23;970;-83
2024/04/03 00:56:40;;;;;;;;;;;;;;;;;;418334;23;1078;-83
2024/04/03 00:56:50;;;;;;;;;;;;;;;;;;416461;23;1270;-82
2024/04/03 00:57:01;;;;;;;;;;;;;;;;;;414445;23;1346;-83
2024/04/03 00:57:12;;;;;;;;;;;;;;;;;;414527;23;959;-83
2024/04/03 00:57:23;;;;;;;;;;;;;;;;;;416488;23;974;-82
2024/04/03 00:57:33;;;;;;;;;;;;;;;;;;418244;23;1430;-83
2024/04/03 00:57:44;;;;;;;;;;;;;;;;;;420390;23;1189;-83
2024/04/03 00:57:54;;;;;;;;;;;;;;;;;;416567;23;1272;-83
2024/04/03 00:58:05;;;;;;;;;;;;;;;;;;412592;24;1052;-83
2024/04/03 00:58:15;;;;;;;;;;;;;;;;;;414629;23;1029;-83
2024/04/03 00:58:25;;;;;;;;;;;;;;;;;;414368;23;1249;-83
2024/04/03 00:58:35;;;;;;;;;;;;;;;;;;416585;23;978;-83
2024/04/03 00:58:45;;;;;;;;;;;;;;;;;;416146;23;970;-83
2024/04/03 00:58:56;;;;;;;;;;;;;;;;;;416425;23;1272;-83
2024/04/03 00:59:06;;;;;;;;;;;;;;;;;;416346;23;1300;-83
2024/04/03 00:59:16;;;;;;;;;;;;;;;;;;414382;23;1290;-82
2024/04/03 00:59:28;;;;;;;;;;;;;;;;;;414426;23;1220;-83
2024/04/03 00:59:38;;;;;;;;;;;;;;;;;;412569;24;1368;-83
2024/04/03 00:59:48;;;;;;;;;;;;;;;;;;414406;23;1190;-83
2024/04/03 00:59:59;;;;;;;;;;;;;;;;;;414644;23;958;-83
2024/04/03 01:00:09;;;;;;;;;;;;;;;;;;414403;23;1017;-83
2024/04/03 01:00:19;;;;;;;;;;;;;;;;;;414637;23;986;-83
2024/04/03 01:00:30;;;;;;;;;;;;;;;;;;416477;23;946;-83
2024/04/03 01:00:40;;;;;;;;;;;;;;;;;;414556;23;977;-83
2024/04/03 01:00:50;;;;;;;;;;;;;;;;;;414434;23;954;-82
2024/04/03 01:01:01;;;;;;;;;;;;;;;;;;416515;23;958;-83
2024/04/03 01:01:13;;;;;;;;;;;;;;;;;;418473;23;1029;-83
2024/04/03 01:01:23;;;;;;;;;;;;;;;;;;420391;23;1001;-82
2024/04/03 01:01:34;;;;;;;;;;;;;;;;;;420215;23;1274;-83
2024/04/03 01:01:44;;;;;;;;;;;;;;;;;;418442;23;1272;-82
2024/04/03 01:01:54;;;;;;;;;;;;;;;;;;416401;23;1185;-83
2024/04/03 01:02:05;;;;;;;;;;;;;;;;;;412709;24;1018;-83
2024/04/03 01:02:15;;;;;;;;;;;;;;;;;;412559;24;995;-83
2024/04/03 01:02:25;;;;;;;;;;;;;;;;;;412554;24;958;-82
2024/04/03 01:02:35;;;;;;;;;;;;;;;;;;414514;23;982;-83
2024/04/03 01:02:46;;;;;;;;;;;;;;;;;;414566;23;800;-82
2024/04/03 01:02:56;;;;;;;;;;;;;;;;;;416529;23;993;-83
2024/04/03 01:03:06;;;;;;;;;;;;;;;;;;418459;23;943;-82
2024/04/03 01:03:16;;;;;;;;;;;;;;;;;;420351;23;1350;-83
2024/04/03 01:03:27;;;;;;;;;;;;;;;;;;418456;23;934;-83
2024/04/03 01:03:37;;;;;;;;;;;;;;;;;;416342;23;1182;-82
2024/04/03 01:03:47;;;;;;;;;;;;;;;;;;416488;23;1176;-83
2024/04/03 01:03:57;;;;;;;;;;;;;;;;;;416328;23;1198;-82
2024/04/03 01:04:07;;;;;;;;;;;;;;;;;;416390;23;947;-82
2024/04/03 01:04:18;;;;;;;;;;;;;;;;;;416362;23;1090;-83
2024/04/03 01:04:28;;;;;;;;;;;;;;;;;;416632;23;986;-83
2024/04/03 01:04:38;;;;;;;;;;;;;;;;;;416490;23;1340;-82
2024/04/03 01:04:48;;;;;;;;;;;;;;;;;;416518;23;1129;-82
2024/04/03 01:04:58;;;;;;;;;;;;;;;;;;416519;23;1211;-82
2024/04/03 01:05:09;;;;;;;;;;;;;;;;;;416442;23;1269;-83
2024/04/03 01:05:19;;;;;;;;;;;;;;;;;;418513;23;1005;-82
2024/04/03 01:05:29;;;;;;;;;;;;;;;;;;418263;23;1033;-83
2024/04/03 01:05:39;;;;;;;;;;;;;;;;;;420548;23;1029;-82
2024/04/03 01:06:19;;;;;;;;;;;;;;;;;;418289;23;1426;-83
2024/04/03 01:06:29;;;;;;;;;;;;;;;;;;410612;24;951;-83
2024/04/03 01:06:39;;;;;;;;;;;;;;;;;;408620;24;1175;-83
2024/04/03 01:06:49;;;;;;;;;;;;;;;;;;412534;24;844;-83
2024/04/03 01:07:09;;;;;;;;;;;;;;;;;;414253;23;1231;-82
2024/04/03 01:07:19;;;;;;;;;;;;;;;;;;414613;23;863;-83
2024/04/03 01:07:30;;;;;;;;;;;;;;;;;;416327;23;1202;-82
2024/04/03 01:07:40;;;;;;;;;;;;;;;;;;416496;23;1518;-83
2024/04/03 01:07:50;;;;;;;;;;;;;;;;;;416272;23;1275;-83
2024/04/03 01:08:01;;;;;;;;;;;;;;;;;;416485;23;1173;-82
2024/04/03 01:08:11;;;;;;;;;;;;;;;;;;414382;23;943;-82
2024/04/03 01:08:21;;;;;;;;;;;;;;;;;;416636;23;899;-83
2024/04/03 01:08:32;;;;;;;;;;;;;;;;;;416034;23;1321;-83
2024/04/03 01:08:42;;;;;;;;;;;;;;;;;;416467;23;1273;-83
2024/04/03 01:08:52;;;;;;;;;;;;;;;;;;418126;23;1009;-83
2024/04/03 01:09:03;;;;;;;;;;;;;;;;;;418592;23;780;-82
2024/04/03 01:09:13;;;;;;;;;;;;;;;;;;418534;23;981;-82
2024/04/03 01:09:23;;;;;;;;;;;;;;;;;;420340;23;1009;-82
2024/04/03 01:09:34;;;;;;;;;;;;;;;;;;418441;23;966;-82
2024/04/03 01:09:44;;;;;;;;;;;;;;;;;;414690;23;1050;-83
2024/04/03 01:09:54;;;;;;;;;;;;;;;;;;416561;23;942;-83
2024/04/03 01:10:05;;;;;;;;;;;;;;;;;;416659;23;899;-83
2024/04/03 01:10:16;;;;;;;;;;;;;;;;;;416257;23;1303;-83
2024/04/03 01:10:27;;;;;;;;;;;;;;;;;;416497;23;943;-82
2024/04/03 01:10:37;;;;;;;;;;;;;;;;;;418381;23;1001;-82
2024/04/03 01:10:47;;;;;;;;;;;;;;;;;;420483;23;1016;-83
2024/04/03 01:10:58;;;;;;;;;;;;;;;;;;420199;23;1417;-81
2024/04/03 01:11:08;;;;;;;;;;;;;;;;;;418441;23;1188;-83
2024/04/03 01:11:18;;;;;;;;;;;;;;;;;;418267;23;935;-82
2024/04/03 01:11:28;;;;;;;;;;;;;;;;;;418515;23;1013;-83
2024/04/03 01:11:39;;;;;;;;;;;;;;;;;;414353;23;1268;-82
2024/04/03 01:11:50;;;;;;;;;;;;;;;;;;414437;23;1874;-83
2024/04/03 01:12:00;;;;;;;;;;;;;;;;;;414518;23;1049;-83
2024/04/03 01:12:11;;;;;;;;;;;;;;;;;;414458;23;950;-82
2024/04/03 01:12:21;;;;;;;;;;;;;;;;;;414522;23;998;-83
2024/04/03 01:12:33;;;;;;;;;;;;;;;;;;414610;23;946;-83
2024/04/03 01:12:44;;;;;;;;;;;;;;;;;;414445;23;1062;-83
2024/04/03 01:12:55;;;;;;;;;;;;;;;;;;414565;23;929;-83
2024/04/03 01:13:05;;;;;;;;;;;;;;;;;;416477;23;930;-83
2024/04/03 01:13:15;;;;;;;;;;;;;;;;;;416539;23;974;-83
2024/04/03 01:13:27;;;;;;;;;;;;;;;;;;418303;23;1221;-83
2024/04/03 01:13:37;;;;;;;;;;;;;;;;;;418534;23;969;-83
2024/04/03 01:13:47;;;;;;;;;;;;;;;;;;418279;23;1280;-82
2024/04/03 01:13:58;;;;;;;;;;;;;;;;;;418544;23;1009;-83
2024/04/03 01:14:08;;;;;;;;;;;;;;;;;;416409;23;1261;-83
2024/04/03 01:14:18;;;;;;;;;;;;;;;;;;414604;23;839;-82
2024/04/03 01:14:28;;;;;;;;;;;;;;;;;;414548;23;1217;-83
2024/04/03 01:14:38;;;;;;;;;;;;;;;;;;416562;23;1052;-82
2024/04/03 01:14:49;;;;;;;;;;;;;;;;;;418316;23;1150;-83
2024/04/03 01:14:59;;;;;;;;;;;;;;;;;;418563;23;1017;-82
2024/04/03 01:15:11;;;;;;;;;;;;;;;;;;418483;23;1049;-82
2024/04/03 01:15:21;;;;;;;;;;;;;;;;;;414506;23;1157;-83